Zenken Maru — JG5556 — position and weather

sailwx.info

Track history (hours):
 
Tides and Currents Weather Stations Pressure Air Temp Water Temp Dewpoint Dewpoint Depression Visibility Wind Speed Wind Dir Waves Ship Positions

Zenken Maru

Last reported at 2015-Jan-28 03:32 UTC. Time now 2015-Jan-28 04:22 UTC.
Position N 35°23' E 139°39'.

Length 98 m; draft 7.2 m.

Type: Cargo ship. MMSI: 431100955.

Date/timePositionNaut miles runAvg speedWind from/ knotsBaromVisibWave heightAir tempDewpointWater temp
2015-Jan-28 03:32N 35°23' E 139°39'0 0.0
2015-Jan-28 02:32N 35°23' E 139°39'0 0.0
2015-Jan-28 01:32N 35°23' E 139°39'0 0.0
2015-Jan-28 00:32N 35°23' E 139°39'0 0.0
2015-Jan-27 23:33N 35°23' E 139°39'0 0.3
2015-Jan-27 22:33N 35°23' E 139°39'3 2.8
2015-Jan-27 21:33N 35°21' E 139°41'0 0.0
2015-Jan-27 20:32N 35°21' E 139°41'0 0.0
2015-Jan-27 19:32N 35°21' E 139°41'0 0.0
2015-Jan-27 18:32N 35°21' E 139°41'0 0.1
2015-Jan-27 17:32N 35°21' E 139°41'0 0.0
2015-Jan-27 16:32N 35°21' E 139°41'0 0.1
2015-Jan-27 15:32N 35°21' E 139°41'0 0.0
2015-Jan-27 14:32N 35°21' E 139°41'0 0.0
2015-Jan-27 13:32N 35°21' E 139°41'0 0.0
2015-Jan-27 12:32N 35°21' E 139°41'0 0.0
2015-Jan-27 11:32N 35°21' E 139°41'0 0.0
2015-Jan-27 10:32N 35°21' E 139°41'0 0.1
2015-Jan-27 09:32N 35°21' E 139°41'0 0.1
2015-Jan-27 08:26N 35°21' E 139°41'0 0.1
2015-Jan-27 07:29N 35°21' E 139°41'0 0.0
2015-Jan-27 06:32N 35°21' E 139°41'0 0.0
2015-Jan-27 05:29N 35°21' E 139°41'0 0.1
2015-Jan-27 04:32N 35°21' E 139°41'3 2.7
2015-Jan-27 03:31N 35°23' E 139°39'0 0.0
2015-Jan-27 02:31N 35°23' E 139°39'0 0.0
2015-Jan-27 01:31N 35°23' E 139°39'0 0.0
2015-Jan-27 00:31N 35°23' E 139°39'0 0.0
2015-Jan-26 23:31N 35°23' E 139°39'0 0.0
2015-Jan-26 22:31N 35°23' E 139°39'0 0.0
2015-Jan-26 21:31N 35°23' E 139°39'0 0.0
2015-Jan-26 20:31N 35°23' E 139°39'0 0.0
2015-Jan-26 19:31N 35°23' E 139°39'0 0.0
2015-Jan-26 18:31N 35°23' E 139°39'0 0.0
2015-Jan-26 17:31N 35°23' E 139°39'0 0.0
2015-Jan-26 16:31N 35°23' E 139°39'0 0.0
2015-Jan-26 15:31N 35°23' E 139°39'0 0.0
2015-Jan-26 14:31N 35°23' E 139°39'0 0.0
2015-Jan-26 13:31N 35°23' E 139°39'0 0.0
2015-Jan-26 12:31N 35°23' E 139°39'0 0.0
2015-Jan-26 11:31N 35°23' E 139°39'0 0.0
2015-Jan-26 10:31N 35°23' E 139°39'0 0.0
2015-Jan-26 09:31N 35°23' E 139°39'0 0.0
2015-Jan-26 08:31N 35°23' E 139°39'0 0.0
2015-Jan-26 07:31N 35°23' E 139°39'0 0.0
2015-Jan-26 06:31N 35°23' E 139°39'0 0.0
2015-Jan-26 05:31N 35°23' E 139°39'0 0.0
2015-Jan-26 04:31N 35°23' E 139°39'0 0.0
2015-Jan-26 03:31N 35°23' E 139°39'0 0.0
2015-Jan-26 02:31N 35°23' E 139°39'0 0.0
2015-Jan-26 01:31N 35°23' E 139°39'0 0.0
2015-Jan-26 00:31N 35°23' E 139°39'0 0.0
2015-Jan-25 23:31N 35°23' E 139°39'0 0.3
2015-Jan-25 22:33N 35°23' E 139°39'4 3.6
2015-Jan-25 21:33N 35°21' E 139°43'1010.0
2015-Jan-25 20:33N 35°11' E 139°46'7 6.5
2015-Jan-25 19:33N 35°05' E 139°45'3 3.5
2015-Jan-25 18:33N 35°02' E 139°44'4 3.9
2015-Jan-25 17:33N 34°58' E 139°43'4 4.4
2015-Jan-25 16:32N 34°54' E 139°46'6 5.5
2015-Jan-25 15:23N 34°49' E 139°51'2 0.1
2015-Jan-24 06:12N 34°50' E 139°48'710.2
2015-Jan-24 05:30N 34°56' E 139°44'1011.0
2015-Jan-24 04:33N 35°07' E 139°45'1111.3
2015-Jan-24 03:33N 35°18' E 139°44'3 3.5
2015-Jan-24 02:33N 35°21' E 139°41'0 0.0
2015-Jan-24 01:31N 35°21' E 139°41'0 0.0
2015-Jan-24 00:31N 35°21' E 139°41'0 0.0
2015-Jan-23 23:31N 35°21' E 139°41'0 0.0
2015-Jan-23 22:31N 35°21' E 139°41'0 0.0
2015-Jan-23 21:28N 35°21' E 139°41'0 0.0
2015-Jan-23 20:31N 35°21' E 139°41'0 0.0
2015-Jan-23 19:31N 35°21' E 139°41'0 0.1
2015-Jan-23 18:31N 35°21' E 139°41'0 0.0
2015-Jan-23 17:31N 35°21' E 139°41'0 0.0
2015-Jan-23 16:31N 35°21' E 139°41'0 0.0
2015-Jan-23 15:31N 35°21' E 139°41'0 0.0
2015-Jan-23 14:31N 35°21' E 139°41'0 0.0
2015-Jan-23 13:31N 35°21' E 139°41'0 0.0
2015-Jan-23 12:31N 35°21' E 139°41'0 0.0
2015-Jan-23 11:31N 35°21' E 139°41'0 0.0
2015-Jan-23 10:31N 35°21' E 139°41'0 0.0
2015-Jan-23 09:31N 35°21' E 139°41'0 0.0
2015-Jan-23 08:31N 35°21' E 139°41'0 0.0
2015-Jan-23 07:31N 35°21' E 139°41'0 0.0
2015-Jan-23 06:31N 35°21' E 139°41'0 0.0
2015-Jan-23 05:31N 35°21' E 139°41'0 0.0
2015-Jan-23 04:31N 35°21' E 139°41'0 0.0
2015-Jan-23 03:31N 35°21' E 139°41'0 0.0
2015-Jan-23 02:31N 35°21' E 139°41'0 0.0
2015-Jan-23 01:31N 35°21' E 139°41'0 0.0
2015-Jan-23 00:31N 35°21' E 139°41'0 0.0
2015-Jan-22 23:31N 35°21' E 139°41'0 0.0
2015-Jan-22 22:28N 35°21' E 139°41'0 0.0
2015-Jan-22 21:31N 35°21' E 139°41'0 0.0
2015-Jan-22 20:31N 35°21' E 139°41'0 0.1
2015-Jan-22 19:31N 35°21' E 139°41'0 0.0
2015-Jan-22 18:31N 35°21' E 139°41'0 0.1
2015-Jan-22 17:31N 35°21' E 139°41'0 0.1
2015-Jan-22 16:31N 35°21' E 139°41'0 0.0
2015-Jan-22 15:31N 35°21' E 139°41'0 0.0
2015-Jan-22 14:31N 35°21' E 139°41'0 0.0
2015-Jan-22 13:31N 35°21' E 139°41'0 0.0
2015-Jan-22 12:31N 35°21' E 139°41'0 0.0
2015-Jan-22 11:31N 35°21' E 139°41'0 0.0
2015-Jan-22 10:31N 35°21' E 139°41'0 0.0
2015-Jan-22 09:31N 35°21' E 139°41'0 0.0
2015-Jan-22 08:31N 35°21' E 139°41'0 0.0
2015-Jan-22 07:31N 35°21' E 139°41'0 0.1
2015-Jan-22 06:31N 35°21' E 139°41'0 0.0
2015-Jan-22 05:31N 35°21' E 139°41'0 0.1
2015-Jan-22 04:31N 35°21' E 139°41'0 0.1
2015-Jan-22 03:31N 35°21' E 139°41'3 3.1
2015-Jan-22 02:32N 35°23' E 139°39'0 0.0
2015-Jan-22 01:33N 35°23' E 139°39'0 0.0
2015-Jan-22 00:34N 35°23' E 139°39'0 0.1
2015-Jan-21 23:34N 35°23' E 139°39'0 0.0
2015-Jan-21 22:50N 35°23' E 139°39'0 0.4
2015-Jan-21 22:46N 35°23' E 139°39'0 1.0
2015-Jan-21 22:34N 35°24' E 139°39'3 2.9
2015-Jan-21 21:34N 35°21' E 139°41'0 0.0
2015-Jan-21 20:32N 35°21' E 139°41'0 0.1
2015-Jan-21 19:32N 35°21' E 139°41'0 0.0
2015-Jan-21 18:32N 35°21' E 139°41'0 0.0
2015-Jan-21 17:32N 35°21' E 139°41'0 0.1
2015-Jan-21 16:32N 35°21' E 139°41'0 0.1
2015-Jan-21 15:32N 35°21' E 139°41'0 0.0
2015-Jan-21 14:32N 35°21' E 139°41'0 0.0
2015-Jan-21 13:32N 35°21' E 139°41'0 0.0
2015-Jan-21 12:32N 35°21' E 139°41'0 0.0
2015-Jan-21 11:32N 35°21' E 139°41'0 0.0
2015-Jan-21 10:32N 35°21' E 139°41'0 0.0
2015-Jan-21 09:32N 35°21' E 139°41'0 0.0
2015-Jan-21 08:32N 35°21' E 139°41'0 0.0
2015-Jan-21 07:32N 35°21' E 139°41'0 0.0
2015-Jan-21 06:32N 35°21' E 139°41'0 0.0
2015-Jan-21 05:32N 35°21' E 139°41'0 0.1
2015-Jan-21 04:32N 35°21' E 139°41'3 2.7
2015-Jan-21 03:32N 35°23' E 139°39'0 0.0
2015-Jan-21 02:32N 35°23' E 139°39'0 0.0
2015-Jan-21 01:32N 35°23' E 139°39'0 0.0
2015-Jan-21 00:32N 35°23' E 139°39'0 0.0
2015-Jan-20 23:32N 35°23' E 139°39'0 0.3
2015-Jan-20 22:33N 35°23' E 139°39'3 2.8
2015-Jan-20 21:34N 35°21' E 139°41'0 0.0
2015-Jan-20 20:32N 35°21' E 139°41'0 0.0
2015-Jan-20 19:32N 35°21' E 139°41'0 0.1
2015-Jan-20 18:32N 35°21' E 139°41'0 0.0
2015-Jan-20 17:32N 35°21' E 139°41'0 0.0
2015-Jan-20 16:32N 35°21' E 139°41'0 0.0
2015-Jan-20 15:32N 35°21' E 139°41'0 0.1
2015-Jan-20 14:32N 35°21' E 139°41'0 0.1
2015-Jan-20 13:32N 35°21' E 139°41'0 0.1
2015-Jan-20 12:32N 35°21' E 139°41'0 0.0
2015-Jan-20 11:32N 35°21' E 139°41'0 0.0
2015-Jan-20 10:32N 35°21' E 139°41'0 0.0
2015-Jan-20 09:32N 35°21' E 139°41'0 0.0
2015-Jan-20 08:32N 35°21' E 139°41'0 0.0
2015-Jan-20 07:32N 35°21' E 139°41'0 0.1
2015-Jan-20 06:32N 35°21' E 139°41'0 0.0
2015-Jan-20 05:32N 35°21' E 139°41'0 0.0
2015-Jan-20 04:32N 35°21' E 139°41'0 0.0
2015-Jan-20 03:26N 35°21' E 139°41'0 0.1
2015-Jan-20 02:32N 35°21' E 139°41'0 0.0
2015-Jan-20 01:30N 35°21' E 139°41'0 0.0
2015-Jan-20 00:32N 35°21' E 139°41'0 0.0
2015-Jan-19 23:32N 35°21' E 139°41'0 0.0
2015-Jan-19 22:32N 35°21' E 139°41'0 0.0
2015-Jan-19 21:32N 35°21' E 139°41'0 0.0
2015-Jan-19 20:32N 35°21' E 139°41'0 0.0
2015-Jan-19 19:32N 35°21' E 139°41'0 0.1
2015-Jan-19 18:32N 35°21' E 139°41'0 0.0
2015-Jan-19 17:32N 35°21' E 139°41'0 0.1
2015-Jan-19 16:32N 35°21' E 139°41'0 0.0
2015-Jan-19 15:32N 35°21' E 139°41'0 0.0
2015-Jan-19 14:32N 35°21' E 139°41'0 0.0
2015-Jan-19 13:32N 35°21' E 139°41'0 0.1
2015-Jan-19 12:32N 35°21' E 139°41'0 0.0
2015-Jan-19 11:32N 35°21' E 139°41'0 0.0
2015-Jan-19 10:32N 35°21' E 139°41'0 0.0
2015-Jan-19 09:32N 35°21' E 139°41'0 0.0
2015-Jan-19 08:32N 35°21' E 139°41'0 0.0
2015-Jan-19 07:32N 35°21' E 139°41'0 0.0
2015-Jan-19 06:32N 35°21' E 139°41'0 0.0
2015-Jan-19 05:32N 35°21' E 139°41'0 0.3
2015-Jan-19 04:33N 35°21' E 139°41'3 2.6
2015-Jan-19 03:33N 35°23' E 139°39'0 0.0
2015-Jan-19 02:33N 35°23' E 139°39'0 0.0
2015-Jan-19 01:33N 35°23' E 139°39'0 0.0
2015-Jan-19 00:33N 35°23' E 139°39'0 0.0
2015-Jan-18 23:33N 35°23' E 139°39'0 0.2
2015-Jan-18 22:33N 35°23' E 139°39'3 2.9
2015-Jan-18 21:32N 35°21' E 139°41'0 0.0
2015-Jan-18 20:29N 35°21' E 139°41'0 0.0
2015-Jan-18 19:32N 35°21' E 139°41'0 0.1
2015-Jan-18 18:32N 35°21' E 139°41'0 0.0
2015-Jan-18 17:32N 35°21' E 139°41'0 0.0
2015-Jan-18 16:32N 35°21' E 139°41'0 0.0
2015-Jan-18 15:32N 35°21' E 139°41'0 0.0
2015-Jan-18 14:32N 35°21' E 139°41'0 0.1
2015-Jan-18 13:32N 35°21' E 139°41'0 0.0
2015-Jan-18 12:32N 35°21' E 139°41'0 0.0
2015-Jan-18 11:32N 35°21' E 139°41'0 0.0
2015-Jan-18 10:32N 35°21' E 139°41'0 0.1
2015-Jan-18 09:32N 35°21' E 139°41'0 0.0
2015-Jan-18 08:32N 35°21' E 139°41'0 0.1
2015-Jan-18 07:32N 35°21' E 139°41'0 0.0
2015-Jan-18 06:32N 35°21' E 139°41'0 0.0
2015-Jan-18 05:32N 35°21' E 139°41'0 0.0
2015-Jan-18 04:32N 35°21' E 139°41'  
Track history (hours):
 
Tides and Currents Weather Stations Pressure Air Temp Water Temp Dewpoint Dewpoint Depression Visibility Wind Speed Wind Dir Waves Ship Positions

Zenken Maru

Last reported at 2015-Jan-28 03:32 UTC. Time now 2015-Jan-28 04:22 UTC.
Position N 35°23' E 139°39'.

Length 98 m; draft 7.2 m.

Type: Cargo ship. MMSI: 431100955.

Date/timePositionNaut miles runAvg speedWind from/ knotsBaromVisibWave heightAir tempDewpointWater temp
2015-Jan-28 03:32N 35°23' E 139°39'0 0.0
2015-Jan-28 02:32N 35°23' E 139°39'0 0.0
2015-Jan-28 01:32N 35°23' E 139°39'0 0.0
2015-Jan-28 00:32N 35°23' E 139°39'0 0.0
2015-Jan-27 23:33N 35°23' E 139°39'0 0.3
2015-Jan-27 22:33N 35°23' E 139°39'3 2.8
2015-Jan-27 21:33N 35°21' E 139°41'0 0.0
2015-Jan-27 20:32N 35°21' E 139°41'0 0.0
2015-Jan-27 19:32N 35°21' E 139°41'0 0.0
2015-Jan-27 18:32N 35°21' E 139°41'0 0.1
2015-Jan-27 17:32N 35°21' E 139°41'0 0.0
2015-Jan-27 16:32N 35°21' E 139°41'0 0.1
2015-Jan-27 15:32N 35°21' E 139°41'0 0.0
2015-Jan-27 14:32N 35°21' E 139°41'0 0.0
2015-Jan-27 13:32N 35°21' E 139°41'0 0.0
2015-Jan-27 12:32N 35°21' E 139°41'0 0.0
2015-Jan-27 11:32N 35°21' E 139°41'0 0.0
2015-Jan-27 10:32N 35°21' E 139°41'0 0.1
2015-Jan-27 09:32N 35°21' E 139°41'0 0.1
2015-Jan-27 08:26N 35°21' E 139°41'0 0.1
2015-Jan-27 07:29N 35°21' E 139°41'0 0.0
2015-Jan-27 06:32N 35°21' E 139°41'0 0.0
2015-Jan-27 05:29N 35°21' E 139°41'0 0.1
2015-Jan-27 04:32N 35°21' E 139°41'3 2.7
2015-Jan-27 03:31N 35°23' E 139°39'0 0.0
2015-Jan-27 02:31N 35°23' E 139°39'0 0.0
2015-Jan-27 01:31N 35°23' E 139°39'0 0.0
2015-Jan-27 00:31N 35°23' E 139°39'0 0.0
2015-Jan-26 23:31N 35°23' E 139°39'0 0.0
2015-Jan-26 22:31N 35°23' E 139°39'0 0.0
2015-Jan-26 21:31N 35°23' E 139°39'0 0.0
2015-Jan-26 20:31N 35°23' E 139°39'0 0.0
2015-Jan-26 19:31N 35°23' E 139°39'0 0.0
2015-Jan-26 18:31N 35°23' E 139°39'0 0.0
2015-Jan-26 17:31N 35°23' E 139°39'0 0.0
2015-Jan-26 16:31N 35°23' E 139°39'0 0.0
2015-Jan-26 15:31N 35°23' E 139°39'0 0.0
2015-Jan-26 14:31N 35°23' E 139°39'0 0.0
2015-Jan-26 13:31N 35°23' E 139°39'0 0.0
2015-Jan-26 12:31N 35°23' E 139°39'0 0.0
2015-Jan-26 11:31N 35°23' E 139°39'0 0.0
2015-Jan-26 10:31N 35°23' E 139°39'0 0.0
2015-Jan-26 09:31N 35°23' E 139°39'0 0.0
2015-Jan-26 08:31N 35°23' E 139°39'0 0.0
2015-Jan-26 07:31N 35°23' E 139°39'0 0.0
2015-Jan-26 06:31N 35°23' E 139°39'0 0.0
2015-Jan-26 05:31N 35°23' E 139°39'0 0.0
2015-Jan-26 04:31N 35°23' E 139°39'0 0.0
2015-Jan-26 03:31N 35°23' E 139°39'0 0.0
2015-Jan-26 02:31N 35°23' E 139°39'0 0.0
2015-Jan-26 01:31N 35°23' E 139°39'0 0.0
2015-Jan-26 00:31N 35°23' E 139°39'0 0.0
2015-Jan-25 23:31N 35°23' E 139°39'0 0.3
2015-Jan-25 22:33N 35°23' E 139°39'4 3.6
2015-Jan-25 21:33N 35°21' E 139°43'1010.0
2015-Jan-25 20:33N 35°11' E 139°46'7 6.5
2015-Jan-25 19:33N 35°05' E 139°45'3 3.5
2015-Jan-25 18:33N 35°02' E 139°44'4 3.9
2015-Jan-25 17:33N 34°58' E 139°43'4 4.4
2015-Jan-25 16:32N 34°54' E 139°46'6 5.5
2015-Jan-25 15:23N 34°49' E 139°51'2 0.1
2015-Jan-24 06:12N 34°50' E 139°48'710.2
2015-Jan-24 05:30N 34°56' E 139°44'1011.0
2015-Jan-24 04:33N 35°07' E 139°45'1111.3
2015-Jan-24 03:33N 35°18' E 139°44'3 3.5
2015-Jan-24 02:33N 35°21' E 139°41'0 0.0
2015-Jan-24 01:31N 35°21' E 139°41'0 0.0
2015-Jan-24 00:31N 35°21' E 139°41'0 0.0
2015-Jan-23 23:31N 35°21' E 139°41'0 0.0
2015-Jan-23 22:31N 35°21' E 139°41'0 0.0
2015-Jan-23 21:28N 35°21' E 139°41'0 0.0
2015-Jan-23 20:31N 35°21' E 139°41'0 0.0
2015-Jan-23 19:31N 35°21' E 139°41'0 0.1
2015-Jan-23 18:31N 35°21' E 139°41'0 0.0
2015-Jan-23 17:31N 35°21' E 139°41'0 0.0
2015-Jan-23 16:31N 35°21' E 139°41'0 0.0
2015-Jan-23 15:31N 35°21' E 139°41'0 0.0
2015-Jan-23 14:31N 35°21' E 139°41'0 0.0
2015-Jan-23 13:31N 35°21' E 139°41'0 0.0
2015-Jan-23 12:31N 35°21' E 139°41'0 0.0
2015-Jan-23 11:31N 35°21' E 139°41'0 0.0
2015-Jan-23 10:31N 35°21' E 139°41'0 0.0
2015-Jan-23 09:31N 35°21' E 139°41'0 0.0
2015-Jan-23 08:31N 35°21' E 139°41'0 0.0
2015-Jan-23 07:31N 35°21' E 139°41'0 0.0
2015-Jan-23 06:31N 35°21' E 139°41'0 0.0
2015-Jan-23 05:31N 35°21' E 139°41'0 0.0
2015-Jan-23 04:31N 35°21' E 139°41'0 0.0
2015-Jan-23 03:31N 35°21' E 139°41'0 0.0
2015-Jan-23 02:31N 35°21' E 139°41'0 0.0
2015-Jan-23 01:31N 35°21' E 139°41'0 0.0
2015-Jan-23 00:31N 35°21' E 139°41'0 0.0
2015-Jan-22 23:31N 35°21' E 139°41'0 0.0
2015-Jan-22 22:28N 35°21' E 139°41'0 0.0
2015-Jan-22 21:31N 35°21' E 139°41'0 0.0
2015-Jan-22 20:31N 35°21' E 139°41'0 0.1
2015-Jan-22 19:31N 35°21' E 139°41'0 0.0
2015-Jan-22 18:31N 35°21' E 139°41'0 0.1
2015-Jan-22 17:31N 35°21' E 139°41'0 0.1
2015-Jan-22 16:31N 35°21' E 139°41'0 0.0
2015-Jan-22 15:31N 35°21' E 139°41'0 0.0
2015-Jan-22 14:31N 35°21' E 139°41'0 0.0
2015-Jan-22 13:31N 35°21' E 139°41'0 0.0
2015-Jan-22 12:31N 35°21' E 139°41'0 0.0
2015-Jan-22 11:31N 35°21' E 139°41'0 0.0
2015-Jan-22 10:31N 35°21' E 139°41'0 0.0
2015-Jan-22 09:31N 35°21' E 139°41'0 0.0
2015-Jan-22 08:31N 35°21' E 139°41'0 0.0
2015-Jan-22 07:31N 35°21' E 139°41'0 0.1
2015-Jan-22 06:31N 35°21' E 139°41'0 0.0
2015-Jan-22 05:31N 35°21' E 139°41'0 0.1
2015-Jan-22 04:31N 35°21' E 139°41'0 0.1
2015-Jan-22 03:31N 35°21' E 139°41'3 3.1
2015-Jan-22 02:32N 35°23' E 139°39'0 0.0
2015-Jan-22 01:33N 35°23' E 139°39'0 0.0
2015-Jan-22 00:34N 35°23' E 139°39'0 0.1
2015-Jan-21 23:34N 35°23' E 139°39'0 0.0
2015-Jan-21 22:50N 35°23' E 139°39'0 0.4
2015-Jan-21 22:46N 35°23' E 139°39'0 1.0
2015-Jan-21 22:34N 35°24' E 139°39'3 2.9
2015-Jan-21 21:34N 35°21' E 139°41'0 0.0
2015-Jan-21 20:32N 35°21' E 139°41'0 0.1
2015-Jan-21 19:32N 35°21' E 139°41'0 0.0
2015-Jan-21 18:32N 35°21' E 139°41'0 0.0
2015-Jan-21 17:32N 35°21' E 139°41'0 0.1
2015-Jan-21 16:32N 35°21' E 139°41'0 0.1
2015-Jan-21 15:32N 35°21' E 139°41'0 0.0
2015-Jan-21 14:32N 35°21' E 139°41'0 0.0
2015-Jan-21 13:32N 35°21' E 139°41'0 0.0
2015-Jan-21 12:32N 35°21' E 139°41'0 0.0
2015-Jan-21 11:32N 35°21' E 139°41'0 0.0
2015-Jan-21 10:32N 35°21' E 139°41'0 0.0
2015-Jan-21 09:32N 35°21' E 139°41'0 0.0
2015-Jan-21 08:32N 35°21' E 139°41'0 0.0
2015-Jan-21 07:32N 35°21' E 139°41'0 0.0
2015-Jan-21 06:32N 35°21' E 139°41'0 0.0
2015-Jan-21 05:32N 35°21' E 139°41'0 0.1
2015-Jan-21 04:32N 35°21' E 139°41'3 2.7
2015-Jan-21 03:32N 35°23' E 139°39'0 0.0
2015-Jan-21 02:32N 35°23' E 139°39'0 0.0
2015-Jan-21 01:32N 35°23' E 139°39'0 0.0
2015-Jan-21 00:32N 35°23' E 139°39'0 0.0
2015-Jan-20 23:32N 35°23' E 139°39'0 0.3
2015-Jan-20 22:33N 35°23' E 139°39'3 2.8
2015-Jan-20 21:34N 35°21' E 139°41'0 0.0
2015-Jan-20 20:32N 35°21' E 139°41'0 0.0
2015-Jan-20 19:32N 35°21' E 139°41'0 0.1
2015-Jan-20 18:32N 35°21' E 139°41'0 0.0
2015-Jan-20 17:32N 35°21' E 139°41'0 0.0
2015-Jan-20 16:32N 35°21' E 139°41'0 0.0
2015-Jan-20 15:32N 35°21' E 139°41'0 0.1
2015-Jan-20 14:32N 35°21' E 139°41'0 0.1
2015-Jan-20 13:32N 35°21' E 139°41'0 0.1
2015-Jan-20 12:32N 35°21' E 139°41'0 0.0
2015-Jan-20 11:32N 35°21' E 139°41'0 0.0
2015-Jan-20 10:32N 35°21' E 139°41'0 0.0
2015-Jan-20 09:32N 35°21' E 139°41'0 0.0
2015-Jan-20 08:32N 35°21' E 139°41'0 0.0
2015-Jan-20 07:32N 35°21' E 139°41'0 0.1
2015-Jan-20 06:32N 35°21' E 139°41'0 0.0
2015-Jan-20 05:32N 35°21' E 139°41'0 0.0
2015-Jan-20 04:32N 35°21' E 139°41'0 0.0
2015-Jan-20 03:26N 35°21' E 139°41'0 0.1
2015-Jan-20 02:32N 35°21' E 139°41'0 0.0
2015-Jan-20 01:30N 35°21' E 139°41'0 0.0
2015-Jan-20 00:32N 35°21' E 139°41'0 0.0
2015-Jan-19 23:32N 35°21' E 139°41'0 0.0
2015-Jan-19 22:32N 35°21' E 139°41'0 0.0
2015-Jan-19 21:32N 35°21' E 139°41'0 0.0
2015-Jan-19 20:32N 35°21' E 139°41'0 0.0
2015-Jan-19 19:32N 35°21' E 139°41'0 0.1
2015-Jan-19 18:32N 35°21' E 139°41'0 0.0
2015-Jan-19 17:32N 35°21' E 139°41'0 0.1
2015-Jan-19 16:32N 35°21' E 139°41'0 0.0
2015-Jan-19 15:32N 35°21' E 139°41'0 0.0
2015-Jan-19 14:32N 35°21' E 139°41'0 0.0
2015-Jan-19 13:32N 35°21' E 139°41'0 0.1
2015-Jan-19 12:32N 35°21' E 139°41'0 0.0
2015-Jan-19 11:32N 35°21' E 139°41'0 0.0
2015-Jan-19 10:32N 35°21' E 139°41'0 0.0
2015-Jan-19 09:32N 35°21' E 139°41'0 0.0
2015-Jan-19 08:32N 35°21' E 139°41'0 0.0
2015-Jan-19 07:32N 35°21' E 139°41'0 0.0
2015-Jan-19 06:32N 35°21' E 139°41'0 0.0
2015-Jan-19 05:32N 35°21' E 139°41'0 0.3
2015-Jan-19 04:33N 35°21' E 139°41'3 2.6
2015-Jan-19 03:33N 35°23' E 139°39'0 0.0
2015-Jan-19 02:33N 35°23' E 139°39'0 0.0
2015-Jan-19 01:33N 35°23' E 139°39'0 0.0
2015-Jan-19 00:33N 35°23' E 139°39'0 0.0
2015-Jan-18 23:33N 35°23' E 139°39'0 0.2
2015-Jan-18 22:33N 35°23' E 139°39'3 2.9
2015-Jan-18 21:32N 35°21' E 139°41'0 0.0
2015-Jan-18 20:29N 35°21' E 139°41'0 0.0
2015-Jan-18 19:32N 35°21' E 139°41'0 0.1
2015-Jan-18 18:32N 35°21' E 139°41'0 0.0
2015-Jan-18 17:32N 35°21' E 139°41'0 0.0
2015-Jan-18 16:32N 35°21' E 139°41'0 0.0
2015-Jan-18 15:32N 35°21' E 139°41'0 0.0
2015-Jan-18 14:32N 35°21' E 139°41'0 0.1
2015-Jan-18 13:32N 35°21' E 139°41'0 0.0
2015-Jan-18 12:32N 35°21' E 139°41'0 0.0
2015-Jan-18 11:32N 35°21' E 139°41'0 0.0
2015-Jan-18 10:32N 35°21' E 139°41'0 0.1
2015-Jan-18 09:32N 35°21' E 139°41'0 0.0
2015-Jan-18 08:32N 35°21' E 139°41'0 0.1
2015-Jan-18 07:32N 35°21' E 139°41'0 0.0
2015-Jan-18 06:32N 35°21' E 139°41'0 0.0
2015-Jan-18 05:32N 35°21' E 139°41'0 0.0
2015-Jan-18 04:32N 35°21' E 139°41'  

Dump ship's entire track history